Time;durP1;ratioP1;P1;durP2;ratioP2;P2;SDS_P1;SDS_P2;PMS_P1;PMS_P2;Temp;Humidity;BMP_temperature;BMP_pressure;BME280_temperature;BME280_humidity;BME280_pressure;Samples;Min_cycle;Max_cycle;Signal;HPM_P1;HPM_P2
2020/12/02 00:01:59;;;;;;;26.95;12.45;;;;;;;2.60;99.75;101757.06;1793944;80;21502;-61
2020/12/02 00:04:27;;;;;;;26.20;13.13;;;;;;;2.61;99.87;101769.89;1793812;80;21102;-61
2020/12/02 00:06:54;;;;;;;26.73;13.95;;;;;;;2.60;99.78;101751.77;1793918;80;20964;-60
2020/12/02 00:09:23;;;;;;;26.07;13.05;;;;;;;2.58;99.75;101751.77;1787936;80;21133;-61
2020/12/02 00:11:51;;;;;;;25.52;13.28;;;;;;;2.59;99.96;101769.85;1789129;80;21157;-60
2020/12/02 00:14:28;;;;;;;28.73;14.53;;;;;;;2.58;99.88;101758.39;1789162;80;21397;-61
2020/12/02 00:16:56;;;;;;;29.48;12.95;;;;;;;2.58;100.00;101754.41;1789048;80;21070;-61
2020/12/02 00:19:24;;;;;;;28.57;13.80;;;;;;;2.57;100.00;101751.73;1789083;80;21145;-61
2020/12/02 00:22:08;;;;;;;27.95;12.90;;;;;;;2.57;100.00;101768.94;1789165;80;21138;-60
2020/12/02 00:24:36;;;;;;;27.48;12.47;;;;;;;2.55;100.00;101764.97;1789123;80;21113;-61
2020/12/02 00:27:27;;;;;;;26.30;12.35;;;;;;;2.54;100.00;101778.17;1789183;80;21527;-62
2020/12/02 00:29:55;;;;;;;30.35;15.25;;;;;;;2.54;100.00;101769.80;1788839;80;21137;-60
2020/12/02 00:32:34;;;;;;;31.82;13.75;;;;;;;2.53;100.00;101784.33;1789080;80;21174;-61
2020/12/02 00:35:03;;;;;;;31.90;15.08;;;;;;;2.51;100.00;101773.70;1789297;80;21492;-60
2020/12/02 00:37:30;;;;;;;32.42;14.13;;;;;;;2.50;100.00;101789.13;1789197;80;21161;-60
2020/12/02 00:39:59;;;;;;;31.68;14.53;;;;;;;2.51;100.00;101792.23;1789891;78;21703;-61
2020/12/02 00:42:26;;;;;;;32.05;13.98;;;;;;;2.50;100.00;101777.22;1791578;80;21023;-61
2020/12/02 00:44:55;;;;;;;33.83;14.53;;;;;;;2.52;100.00;101779.45;1791740;80;21195;-62
2020/12/02 00:47:24;;;;;;;30.35;12.58;;;;;;;2.52;100.00;101762.24;1824058;78;21090;-61
2020/12/02 00:49:54;;;;;;;31.77;13.93;;;;;;;2.52;100.00;101771.52;1791585;80;21153;-61
2020/12/02 00:52:23;;;;;;;27.37;13.10;;;;;;;2.50;99.92;101790.45;1791535;80;21363;-61
2020/12/02 00:54:51;;;;;;;33.05;13.68;;;;;;;2.45;99.55;101772.30;1785995;80;21602;-61
2020/12/02 00:57:30;;;;;;;30.20;14.20;;;;;;;2.39;99.45;101766.47;1785819;80;21507;-61
2020/12/02 00:59:58;;;;;;;31.02;12.98;;;;;;;2.36;99.60;101763.78;1785812;80;21118;-61
2020/12/02 01:02:44;;;;;;;31.27;12.63;;;;;;;2.34;99.99;101766.84;1785783;80;20959;-61
2020/12/02 01:05:13;;;;;;;;;;;;;;;2.36;100.00;101745.70;1787323;80;21391;-60
2020/12/02 01:07:41;;;;;;;29.72;12.90;;;;;;;2.39;100.00;101752.36;1785731;80;20218;-61
2020/12/02 01:10:10;;;;;;;33.25;13.25;;;;;;;2.38;100.00;101754.55;1788197;80;21086;-61
2020/12/02 01:12:45;;;;;;;27.95;12.93;;;;;;;2.36;100.00;101753.19;1821636;78;21084;-60
2020/12/02 01:15:15;;;;;;;;;;;;;;;2.38;100.00;101755.87;1780724;80;21139;-60
2020/12/02 01:17:42;;;;;;;32.55;13.58;;;;;;;2.37;100.00;101759.39;1777252;79;21389;-61
2020/12/02 01:20:11;;;;;;;34.45;13.32;;;;;;;2.37;100.00;101750.12;1801959;79;21089;-60
2020/12/02 01:22:40;;;;;;;31.97;13.60;;;;;;;2.38;100.00;101746.16;1771202;79;21636;-60
2020/12/02 01:25:19;;;;;;;31.25;14.05;;;;;;;2.40;100.00;101735.61;1802037;79;21136;-60
2020/12/02 01:28:04;;;;;;;37.05;13.78;;;;;;;2.38;100.00;101747.94;1801988;79;21038;-61
2020/12/02 01:30:33;;;;;;;44.27;13.93;;;;;;;2.37;100.00;101742.19;1802138;79;21187;-60
2020/12/02 01:33:00;;;;;;;31.62;13.00;;;;;;;2.37;100.00;101748.80;1801871;79;20915;-61
2020/12/02 01:35:30;;;;;;;26.17;12.30;;;;;;;2.37;100.00;101748.80;1802035;79;21073;-61
2020/12/02 01:38:02;;;;;;;34.58;13.88;;;;;;;2.37;100.00;101756.30;1801973;79;21069;-61
2020/12/02 01:40:31;;;;;;;31.62;13.18;;;;;;;2.35;100.00;101750.54;1802074;79;21167;-60
2020/12/02 01:43:03;;;;;;;36.75;14.53;;;;;;;2.37;100.00;101762.04;1802022;79;21356;-61
2020/12/02 01:45:35;;;;;;;27.62;12.35;;;;;;;2.36;100.00;101762.91;1801917;79;21077;-60
2020/12/02 01:48:31;;;;;;;28.12;12.43;;;;;;;2.35;100.00;101770.39;1801959;79;21103;-61
2020/12/02 01:51:32;;;;;;;38.40;14.18;;;;;;;2.36;100.00;101761.58;1802019;79;21061;-60
2020/12/02 01:54:17;;;;;;;25.60;11.75;;;;;;;2.36;100.00;101760.27;1801254;79;21064;-60
2020/12/02 01:56:53;;;;;;;34.03;14.03;;;;;;;2.35;100.00;101769.07;1800678;79;21199;-61
2020/12/02 01:59:26;;;;;;;30.75;13.93;;;;;;;2.34;100.00;101767.29;1782699;80;21221;-59
2020/12/02 02:02:06;;;;;;;30.82;13.15;;;;;;;2.32;100.00;101759.31;1782462;80;21222;-60
2020/12/02 02:04:51;;;;;;;31.55;13.88;;;;;;;2.34;100.00;101759.34;1786529;80;21108;-61
2020/12/02 02:07:23;;;;;;;27.65;11.22;;;;;;;2.33;100.00;101767.70;1817266;79;21070;-61
2020/12/02 02:10:03;;;;;;;34.95;13.70;;;;;;;2.32;100.00;101767.67;1786475;79;21017;-61
2020/12/02 02:13:20;;;;;;;31.75;12.60;;;;;;;2.32;100.00;101767.67;1807156;79;21170;-60
2020/12/02 02:15:52;;;;;;;26.60;12.82;;;;;;;2.28;100.00;101757.04;1786626;80;20931;-60
2020/12/02 02:18:24;;;;;;;30.15;13.13;;;;;;;2.26;100.00;101768.03;1816836;79;21062;-61
2020/12/02 02:21:03;;;;;;;30.55;13.00;;;;;;;2.26;100.00;101760.55;1817054;79;21094;-61
2020/12/02 02:23:31;;;;;;;32.08;13.32;;;;;;;2.26;100.00;101744.22;1817104;79;21169;-61
2020/12/02 02:26:19;;;;;;;32.05;12.98;;;;;;;2.25;100.00;101754.35;1817216;79;21512;-61
2020/12/02 02:29:17;;;;;;;33.58;12.45;;;;;;;2.25;100.00;101768.91;1817159;79;21173;-61
2020/12/02 02:32:02;;;;;;;34.80;13.95;;;;;;;2.24;100.00;101750.38;1756135;81;21585;-61
2020/12/02 02:34:31;;;;;;;29.30;12.80;;;;;;;2.23;100.00;101755.22;1734663;82;21122;-60
2020/12/02 02:37:04;;;;;;;30.72;13.03;;;;;;;2.20;100.00;101752.08;1770562;80;22072;-60
2020/12/02 02:39:33;;;;;;;30.02;13.00;;;;;;;2.18;100.00;101760.42;1783206;80;21114;-60
2020/12/02 02:42:05;;;;;;;31.20;14.05;;;;;;;2.18;100.00;101756.45;1786710;80;21045;-60
2020/12/02 02:44:33;;;;;;;32.60;13.28;;;;;;;2.18;100.00;101759.09;1817302;79;21637;-61
2020/12/02 02:47:01;;;;;;;33.73;15.03;;;;;;;2.19;100.00;101756.91;1817213;79;21137;-60
2020/12/02 02:49:29;;;;;;;31.40;14.00;;;;;;;2.20;100.00;101755.13;1817155;79;21349;-60
2020/12/02 02:51:56;;;;;;;33.40;13.80;;;;;;;2.19;100.00;101763.52;1817212;79;21138;-60
2020/12/02 02:54:24;;;;;;;31.73;13.32;;;;;;;2.22;100.00;101760.05;1819280;78;21094;-61
2020/12/02 02:56:53;;;;;;;27.90;12.65;;;;;;;2.21;100.00;101756.50;1821689;78;21145;-60
2020/12/02 02:59:21;;;;;;;32.73;13.38;;;;;;;2.22;100.00;101771.51;1821860;78;21534;-60
2020/12/02 03:01:48;;;;;;;35.50;15.60;;;;;;;2.20;100.00;101767.95;1821825;78;21337;-60
2020/12/02 03:04:17;;;;;;;32.93;14.23;;;;;;;2.19;100.00;101776.75;1821718;78;21083;-60
2020/12/02 03:06:45;;;;;;;32.60;13.35;;;;;;;2.19;100.00;101770.14;1821866;78;21110;-61
2020/12/02 03:09:12;;;;;;;33.30;14.18;;;;;;;2.18;100.00;101765.72;1811593;78;21573;-61
2020/12/02 03:11:41;;;;;;;31.60;13.20;;;;;;;2.17;100.00;101770.55;1771216;81;21190;-61
2020/12/02 03:14:09;;;;;;;33.78;14.10;;;;;;;2.14;100.00;101777.13;1725407;81;21486;-61
2020/12/02 03:16:44;;;;;;;29.63;13.88;;;;;;;2.12;100.00;101773.56;1771211;80;21063;-61
2020/12/02 03:19:25;;;;;;;33.63;14.10;;;;;;;2.11;100.00;101773.11;1754995;81;24419;-60
2020/12/02 03:21:55;;;;;;;31.12;12.88;;;;;;;2.11;100.00;101773.11;1771250;81;21147;-61
2020/12/02 03:24:24;;;;;;;34.10;14.58;;;;;;;2.13;100.00;101768.73;1754860;81;21509;-60
2020/12/02 03:26:52;;;;;;;32.88;12.68;;;;;;;2.12;100.00;101774.88;1771310;81;21432;-61
2020/12/02 03:29:19;;;;;;;31.25;13.58;;;;;;;2.13;100.00;101773.56;1754792;81;21177;-60
2020/12/02 03:31:47;;;;;;;30.57;12.63;;;;;;;2.14;100.00;101784.61;1771283;80;21166;-61
2020/12/02 03:34:17;;;;;;;27.50;12.70;;;;;;;2.17;100.00;101772.29;1754738;81;21181;-60
2020/12/02 03:36:44;;;;;;;28.07;11.85;;;;;;;2.18;100.00;101777.62;1771239;81;21138;-60
2020/12/02 03:39:12;;;;;;;29.63;12.93;;;;;;;2.19;100.00;101772.78;1754664;81;21368;-60
2020/12/02 03:41:40;;;;;;;25.30;12.15;;;;;;;2.22;100.00;101774.16;1771244;81;21583;-60
2020/12/02 03:44:08;;;;;;;22.52;11.25;;;;;;;2.24;100.00;101781.68;1754724;81;21061;-60
2020/12/02 03:46:36;;;;;;;25.15;11.65;;;;;;;2.25;100.00;101769.36;1771171;80;21092;-60
2020/12/02 03:49:05;;;;;;;26.70;12.13;;;;;;;2.26;100.00;101769.81;1754709;81;21106;-61
2020/12/02 03:51:33;;;;;;;26.70;11.30;;;;;;;2.26;100.00;101768.03;1771183;81;21363;-60
2020/12/02 03:54:01;;;;;;;21.75;9.73;;;;;;;2.28;100.00;101771.59;1754532;81;21098;-60
2020/12/02 03:56:29;;;;;;;22.65;9.58;;;;;;;2.31;100.00;101777.80;1754714;81;21046;-60
2020/12/02 03:58:57;;;;;;;21.33;9.50;;;;;;;2.31;100.00;101777.80;1754727;81;21054;-60
2020/12/02 04:01:25;;;;;;;22.50;9.63;;;;;;;2.31;100.00;101772.51;1754665;81;21109;-60
2020/12/02 04:03:52;;;;;;;19.87;9.23;;;;;;;2.32;100.00;101775.19;1754632;81;21342;-61
2020/12/02 04:06:20;;;;;;;18.50;9.43;;;;;;;2.31;100.00;101765.89;1754612;81;21097;-61
2020/12/02 04:08:47;;;;;;;16.32;8.35;;;;;;;2.32;100.00;101771.64;1758613;80;21491;-60
2020/12/02 04:11:16;;;;;;;17.37;8.08;;;;;;;2.35;100.00;101765.09;1790022;78;21091;-60
2020/12/02 04:13:44;;;;;;;15.40;7.72;;;;;;;2.40;100.00;101773.54;1789374;80;21107;-61
2020/12/02 04:16:11;;;;;;;14.13;7.53;;;;;;;2.43;100.00;101774.03;1789392;80;21706;-61
2020/12/02 04:18:39;;;;;;;15.23;8.18;;;;;;;2.46;100.00;101782.47;1789289;80;21079;-60
2020/12/02 04:21:06;;;;;;;18.05;7.30;;;;;;;2.48;100.00;101778.95;1789381;80;21068;-61
2020/12/02 04:23:34;;;;;;;13.18;7.90;;;;;;;2.52;100.00;101784.75;1789504;80;21535;-60
2020/12/02 04:26:02;;;;;;;15.90;8.25;;;;;;;2.53;100.00;101779.91;1789560;80;21218;-60
2020/12/02 04:28:30;;;;;;;14.30;7.30;;;;;;;2.55;100.00;101775.55;1789404;80;21421;-60
2020/12/02 04:30:59;;;;;;;14.43;7.70;;;;;;;2.57;100.00;101780.86;1789365;80;21191;-60
2020/12/02 04:33:26;;;;;;;16.00;7.67;;;;;;;2.57;100.00;101786.15;1789310;80;21556;-60
2020/12/02 04:35:54;;;;;;;14.10;7.92;;;;;;;2.57;100.00;101787.48;1789319;80;21119;-60
2020/12/02 04:38:22;;;;;;;17.82;8.58;;;;;;;2.57;100.00;101786.15;1789478;80;21147;-60
2020/12/02 04:40:49;;;;;;;14.35;7.53;;;;;;;2.60;100.00;101787.97;1789328;80;21413;-60
2020/12/02 04:43:37;;;;;;;14.47;8.23;;;;;;;2.61;100.00;101795.05;1789355;80;20965;-60
2020/12/02 04:46:17;;;;;;;14.50;8.20;;;;;;;2.62;100.00;101791.52;1789334;80;21123;-60
2020/12/02 04:48:50;;;;;;;12.82;7.10;;;;;;;2.62;100.00;101790.20;1789365;80;21119;-60
2020/12/02 04:51:24;;;;;;;17.23;8.58;;;;;;;2.65;100.00;101787.59;1789511;80;21136;-60
2020/12/02 04:53:57;;;;;;;18.77;9.08;;;;;;;2.70;100.00;101795.16;1789312;79;21198;-61
2020/12/02 04:56:26;;;;;;;13.68;7.85;;;;;;;2.71;100.00;101800.91;1784882;80;21128;-61
2020/12/02 04:58:56;;;;;;;15.83;8.25;;;;;;;2.70;100.00;101786.80;1784941;80;21119;-60
2020/12/02 05:01:32;;;;;;;15.43;7.80;;;;;;;2.69;100.00;101794.70;1784962;80;21246;-60
2020/12/02 05:04:09;;;;;;;15.75;8.20;;;;;;;2.70;100.00;101796.48;1784939;80;21048;-60
2020/12/02 05:06:40;;;;;;;17.05;8.15;;;;;;;2.67;100.00;101800.42;1784265;80;21566;-60
2020/12/02 05:09:25;;;;;;;16.30;8.65;;;;;;;2.67;100.00;101792.48;1783111;78;21117;-61
2020/12/02 05:12:07;;;;;;;18.37;9.48;;;;;;;2.67;100.00;101802.65;1785002;80;21505;-61
2020/12/02 05:14:41;;;;;;;18.73;9.88;;;;;;;2.69;100.00;101801.33;1784942;80;21122;-61
2020/12/02 05:17:20;;;;;;;15.30;8.25;;;;;;;2.70;100.00;101809.31;1785014;80;21160;-61
2020/12/02 05:20:11;;;;;;;16.62;9.08;;;;;;;2.70;100.00;101811.05;1739805;82;21728;-60
2020/12/02 05:22:45;;;;;;;15.58;8.18;;;;;;;2.70;100.00;101828.27;1721039;83;21127;-60
2020/12/02 05:25:31;;;;;;;18.50;8.85;;;;;;;2.71;100.00;101799.59;1752854;81;21605;-61
2020/12/02 05:28:26;;;;;;;15.10;8.03;;;;;;;2.74;100.00;101807.58;1742736;82;21166;-61
2020/12/02 05:31:07;;;;;;;13.45;7.40;;;;;;;2.77;100.00;101806.74;1742850;82;21100;-61
2020/12/02 05:33:35;;;;;;;13.70;7.20;;;;;;;2.81;100.00;101816.09;1742339;82;21524;-60
2020/12/02 05:36:20;;;;;;;14.53;7.47;;;;;;;2.86;100.00;101817.45;1739862;82;21270;-61
2020/12/02 05:39:19;;;;;;;13.25;6.60;;;;;;;2.88;100.00;101806.89;1743058;82;21065;-60
2020/12/02 05:41:52;;;;;;;13.98;7.28;;;;;;;2.92;99.80;101843.15;1722770;83;21187;-60
2020/12/02 05:44:33;;;;;;;12.45;6.85;;;;;;;2.95;99.53;101815.38;1742674;82;21047;-60
2020/12/02 05:47:03;;;;;;;16.35;7.55;;;;;;;2.97;99.37;101838.80;1739687;82;21206;-61
2020/12/02 05:49:40;;;;;;;15.23;7.62;;;;;;;2.98;99.07;101819.38;1742974;82;21518;-61
2020/12/02 05:52:33;;;;;;;15.35;7.95;;;;;;;2.99;99.13;101822.52;1722912;83;21241;-61
2020/12/02 05:55:18;;;;;;;15.35;8.03;;;;;;;3.01;99.22;101816.80;1735359;81;21169;-61
2020/12/02 05:58:06;;;;;;;15.20;7.92;;;;;;;3.01;99.16;101820.78;1805724;79;21126;-61
2020/12/02 06:00:34;;;;;;;16.48;8.08;;;;;;;3.00;99.03;101829.60;1757122;79;21271;-61
2020/12/02 06:03:02;;;;;;;15.32;7.90;;;;;;;3.00;99.16;101834.45;1805549;79;21139;-60
2020/12/02 06:05:30;;;;;;;16.20;8.45;;;;;;;3.02;99.21;101842.44;1805601;79;21122;-62
2020/12/02 06:08:02;;;;;;;14.83;7.62;;;;;;;3.03;99.00;101821.69;1805621;79;21071;-61
2020/12/02 06:10:47;;;;;;;12.75;7.33;;;;;;;3.05;98.88;101836.27;1811514;78;21047;-62
2020/12/02 06:13:39;;;;;;;14.18;8.00;;;;;;;3.05;98.79;101830.55;1821612;78;21421;-61
2020/12/02 06:16:06;;;;;;;17.57;8.08;;;;;;;3.06;98.76;101838.95;1821729;78;21173;-61
2020/12/02 06:18:36;;;;;;;17.98;8.58;;;;;;;3.05;98.81;101829.22;1821875;78;21123;-61
2020/12/02 06:21:03;;;;;;;17.07;8.55;;;;;;;3.05;98.86;101825.24;1785876;80;21622;-61
2020/12/02 06:23:43;;;;;;;16.15;8.65;;;;;;;3.06;98.97;101828.34;1789499;80;21056;-61
2020/12/02 06:26:11;;;;;;;14.73;7.40;;;;;;;3.07;98.98;101837.17;1821831;78;21188;-62
2020/12/02 06:28:43;;;;;;;13.22;7.80;;;;;;;3.08;98.89;101839.86;1821840;78;21090;-60
2020/12/02 06:31:20;;;;;;;14.35;7.12;;;;;;;3.08;98.77;101829.26;1821886;78;21062;-61
2020/12/02 06:33:48;;;;;;;16.55;8.33;;;;;;;3.10;98.72;101832.81;1819782;78;21447;-61
2020/12/02 06:36:30;;;;;;;19.50;8.75;;;;;;;3.11;98.56;101818.69;1790485;78;21149;-61
2020/12/02 06:39:24;;;;;;;16.85;8.80;;;;;;;3.13;98.33;101827.55;1821809;78;21350;-61
2020/12/02 06:41:51;;;;;;;19.30;9.15;;;;;;;3.14;98.34;101832.43;1821744;78;21189;-61
2020/12/02 06:44:36;;;;;;;15.20;8.63;;;;;;;3.17;98.35;101838.19;1789051;78;20991;-61
2020/12/02 06:47:20;;;;;;;16.32;8.75;;;;;;;3.19;98.06;101840.42;1821968;78;21129;-61
2020/12/02 06:49:50;;;;;;;13.65;7.60;;;;;;;3.18;98.01;101835.57;1821878;78;21050;-63
2020/12/02 06:52:28;;;;;;;14.10;7.83;;;;;;;3.21;97.64;101855.94;1790909;78;22339;-60
2020/12/02 06:55:03;;;;;;;13.30;7.12;;;;;;;3.24;97.56;101837.42;1822810;78;21077;-61
2020/12/02 06:57:30;;;;;;;13.65;7.62;;;;;;;3.26;97.37;101844.95;1827862;78;20951;-61
2020/12/02 07:00:02;;;;;;;16.65;8.05;;;;;;;3.27;97.16;101842.75;1827923;78;21030;-61
2020/12/02 07:02:53;;;;;;;16.70;8.38;;;;;;;3.29;97.03;101858.24;1827956;78;21149;-60
2020/12/02 07:05:39;;;;;;;14.15;7.47;;;;;;;3.30;97.02;101851.62;1827859;78;21331;-61
2020/12/02 07:08:30;;;;;;;14.65;7.10;;;;;;;3.31;96.82;101848.55;1827956;78;21554;-62
2020/12/02 07:11:17;;;;;;;13.32;6.95;;;;;;;3.30;96.31;101858.70;1795336;80;21181;-62
2020/12/02 07:13:49;;;;;;;14.38;7.45;;;;;;;3.29;96.17;101867.52;1795227;80;21178;-61
2020/12/02 07:16:34;;;;;;;13.13;6.70;;;;;;;3.27;96.06;101846.73;1795153;80;21123;-61
2020/12/02 07:19:15;;;;;;;10.18;5.42;;;;;;;3.28;96.13;101873.70;1795434;80;21207;-61
2020/12/02 07:21:58;;;;;;;13.30;6.92;;;;;;;3.29;95.86;101852.94;1795324;80;21142;-61
2020/12/02 07:24:35;;;;;;;12.93;7.12;;;;;;;3.32;96.08;101859.60;1795323;80;21151;-61
2020/12/02 07:27:04;;;;;;;13.13;8.00;;;;;;;3.36;95.69;101863.20;1795197;80;21204;-61
2020/12/02 07:29:33;;;;;;;16.42;8.15;;;;;;;3.38;95.65;101872.93;1755503;81;21193;-61
2020/12/02 07:32:04;;;;;;;16.42;7.58;;;;;;;3.38;95.50;101869.41;1773374;80;21364;-62
2020/12/02 07:34:33;;;;;;;12.33;7.25;;;;;;;3.35;95.45;101871.56;1773291;80;21155;-61
2020/12/02 07:37:04;;;;;;;15.55;8.15;;;;;;;3.33;95.24;101887.89;1773305;80;21088;-61
2020/12/02 07:39:32;;;;;;;12.85;7.55;;;;;;;3.32;95.17;101882.14;1773404;80;21159;-62
2020/12/02 07:42:30;;;;;;;13.93;7.65;;;;;;;3.32;95.37;101880.81;1773478;80;21053;-61
2020/12/02 07:45:19;;;;;;;14.70;7.25;;;;;;;3.33;95.38;101885.24;1773385;80;21425;-61
2020/12/02 07:48:10;;;;;;;15.23;7.55;;;;;;;3.33;95.08;101868.02;1773341;80;21064;-61
2020/12/02 07:50:53;;;;;;;16.80;8.83;;;;;;;3.34;94.89;101868.46;1773458;80;21068;-62
2020/12/02 07:53:44;;;;;;;19.00;9.03;;;;;;;3.36;94.86;101882.62;1773215;80;21119;-61
2020/12/02 07:56:23;;;;;;;16.02;7.85;;;;;;;3.35;94.27;101867.59;1754517;80;21179;-60
2020/12/02 07:58:51;;;;;;;15.68;8.30;;;;;;;3.33;94.13;101878.61;1784823;80;21427;-61
2020/12/02 08:01:36;;;;;;;17.25;8.68;;;;;;;3.34;94.15;101883.50;1785028;80;21601;-61
2020/12/02 08:04:25;;;;;;;17.07;7.90;;;;;;;3.34;93.86;101893.65;1785028;80;21117;-63
2020/12/02 08:07:11;;;;;;;18.37;8.00;;;;;;;3.33;93.22;101898.50;1785059;80;21196;-63
2020/12/02 08:09:45;;;;;;;19.92;7.65;;;;;;;3.32;93.11;101911.75;1792324;79;21033;-62
2020/12/02 08:12:19;;;;;;;14.93;8.18;;;;;;;3.29;92.76;101902.86;1788554;80;22244;-62
2020/12/02 08:14:51;;;;;;;17.77;9.18;;;;;;;3.27;92.71;101884.72;1768489;81;21081;-62
2020/12/02 08:17:22;;;;;;;20.15;9.20;;;;;;;3.28;93.08;101898.88;1787571;80;21078;-62
2020/12/02 08:19:53;;;;;;;15.93;8.98;;;;;;;3.29;93.26;101892.25;1768567;81;21462;-61
2020/12/02 08:22:42;;;;;;;16.15;8.88;;;;;;;3.30;93.16;101899.33;1788540;80;21126;-62
2020/12/02 08:25:24;;;;;;;18.10;9.48;;;;;;;3.29;93.00;101899.33;1768452;81;21382;-61
2020/12/02 08:27:54;;;;;;;16.77;8.80;;;;;;;3.27;93.23;101886.50;1768626;80;21086;-61
2020/12/02 08:30:24;;;;;;;18.67;9.38;;;;;;;3.28;93.28;101886.50;1760107;80;21152;-61
2020/12/02 08:33:11;;;;;;;23.20;9.58;;;;;;;3.27;92.99;101897.09;1752530;80;21164;-61
2020/12/02 08:35:48;;;;;;;15.83;9.33;;;;;;;3.26;92.87;101876.31;1783208;80;21112;-61
2020/12/02 08:38:32;;;;;;;18.92;8.58;;;;;;;3.26;92.62;101896.64;1817139;79;21372;-62
2020/12/02 08:41:01;;;;;;;16.60;9.33;;;;;;;3.24;92.22;101903.69;1817083;79;21124;-62
2020/12/02 08:43:38;;;;;;;16.67;9.15;;;;;;;3.25;92.54;101881.61;1817076;79;21098;-62
2020/12/02 08:46:19;;;;;;;19.80;9.35;;;;;;;3.24;93.00;101884.67;1817150;79;21114;-62
2020/12/02 08:48:50;;;;;;;18.50;9.45;;;;;;;3.24;93.21;101871.42;1796262;79;21185;-61
2020/12/02 08:51:22;;;;;;;19.42;9.10;;;;;;;3.26;93.36;101878.09;1769471;80;21436;-61
2020/12/02 08:53:50;;;;;;;18.37;9.25;;;;;;;3.25;93.77;101882.94;1766995;80;21120;-62
2020/12/02 08:56:33;;;;;;;21.95;10.00;;;;;;;3.23;93.37;101888.66;1787794;79;21122;-62
2020/12/02 08:59:03;;;;;;;18.10;9.95;;;;;;;3.22;93.76;101884.22;1733829;82;21078;-62
2020/12/02 09:01:30;;;;;;;21.02;9.43;;;;;;;3.17;94.12;101879.27;1801622;79;21170;-62
2020/12/02 09:03:58;;;;;;;18.52;9.75;;;;;;;3.15;94.39;101872.64;1805674;79;21681;-61
2020/12/02 09:06:26;;;;;;;17.65;9.95;;;;;;;3.11;94.86;101869.05;1805595;79;21134;-61
2020/12/02 09:08:53;;;;;;;17.80;9.60;;;;;;;3.09;95.00;101884.03;1803975;79;21112;-62
2020/12/02 09:11:33;;;;;;;17.87;10.20;;;;;;;3.04;94.92;101905.61;1804234;79;21070;-61
2020/12/02 09:14:02;;;;;;;17.87;9.40;;;;;;;2.97;94.88;101864.88;1801948;79;21060;-62
2020/12/02 09:16:36;;;;;;;19.95;9.93;;;;;;;2.95;95.47;101874.98;1801973;79;21093;-61
2020/12/02 09:19:07;;;;;;;20.63;10.30;;;;;;;2.94;95.42;101867.91;1802171;79;21128;-62
2020/12/02 09:21:34;;;;;;;19.10;9.90;;;;;;;2.92;95.51;101877.59;1770862;79;21120;-63
2020/12/02 09:24:04;;;;;;;21.05;10.08;;;;;;;2.90;95.61;101860.37;1801917;79;21167;-62
2020/12/02 09:26:33;;;;;;;19.17;10.13;;;;;;;2.91;95.75;101878.46;1801984;79;21144;-62
2020/12/02 09:29:03;;;;;;;21.30;11.18;;;;;;;2.90;95.76;101856.81;1801966;79;21493;-62
2020/12/02 09:31:32;;;;;;;20.20;10.60;;;;;;;2.90;95.71;101880.66;1801885;79;21155;-65
2020/12/02 09:34:03;;;;;;;20.30;10.43;;;;;;;2.90;95.34;101870.06;1801971;79;21072;-62
2020/12/02 09:36:30;;;;;;;25.52;11.75;;;;;;;2.90;95.41;101871.38;1802002;79;21167;-61
2020/12/02 09:38:57;;;;;;;23.32;11.60;;;;;;;2.92;95.46;101857.72;1801957;79;21132;-61
2020/12/02 09:42:22;;;;;;;23.40;11.97;;;;;;;2.94;95.42;101878.50;1801871;79;21698;-61
2020/12/02 09:45:06;;;;;;;20.60;10.65;;;;;;;2.96;95.38;101848.53;1801963;79;21068;-63
2020/12/02 09:47:34;;;;;;;25.62;11.12;;;;;;;3.00;95.00;101846.82;1770764;79;21112;-62
2020/12/02 09:50:02;;;;;;;24.98;11.97;;;;;;;3.01;94.79;101847.27;1771002;79;21056;-62
2020/12/02 09:52:45;;;;;;;19.07;10.38;;;;;;;3.00;94.63;101859.62;1801931;79;21466;-62
2020/12/02 09:55:20;;;;;;;19.37;9.98;;;;;;;3.04;94.76;101859.23;1801896;79;22574;-61
2020/12/02 09:57:50;;;;;;;19.42;9.73;;;;;;;3.08;94.53;101855.75;1800408;79;21080;-61
2020/12/02 10:00:22;;;;;;;22.73;10.80;;;;;;;3.10;94.06;101842.09;1800274;79;21208;-61
2020/12/02 10:03:10;;;;;;;20.68;10.28;;;;;;;3.13;93.84;101867.30;1784342;79;21119;-62
2020/12/02 10:06:01;;;;;;;19.17;9.43;;;;;;;3.15;93.31;101837.73;1743299;80;21128;-61
2020/12/02 10:09:07;;;;;;;19.95;10.43;;;;;;;3.17;92.33;101836.44;1713184;80;22202;-62
2020/12/02 10:11:50;;;;;;;21.45;8.63;;;;;;;3.20;92.58;101831.59;1740397;80;21604;-62
2020/12/02 10:15:03;;;;;;;22.58;10.63;;;;;;;3.22;92.05;101839.16;1732983;80;21077;-62
2020/12/02 10:18:12;;;;;;;23.85;10.03;;;;;;;3.24;91.97;101825.49;1736703;80;21188;-62
2020/12/02 10:20:46;;;;;;;20.72;11.08;;;;;;;3.27;91.56;101831.70;1725610;80;21097;-62
2020/12/02 10:23:33;;;;;;;21.02;10.70;;;;;;;3.29;91.08;101835.70;1762878;79;21440;-61
2020/12/02 10:26:23;;;;;;;;;;;;;;;3.31;91.07;101839.27;1728942;79;21258;-61
2020/12/02 10:29:03;;;;;;;22.30;10.58;;;;;;;3.32;90.70;101827.79;1785138;79;20239;-61
2020/12/02 10:32:03;;;;;;;23.00;11.12;;;;;;;3.35;90.47;101841.08;1756088;80;21584;-62
2020/12/02 10:34:34;;;;;;;20.37;9.38;;;;;;;3.36;90.29;101836.23;1784865;79;21166;-62
2020/12/02 10:37:18;;;;;;;20.52;10.82;;;;;;;3.37;89.98;101861.00;1699382;80;21317;-62
2020/12/02 10:39:46;;;;;;;26.42;11.03;;;;;;;3.35;90.16;101837.10;1748208;80;21188;-62
2020/12/02 10:42:45;;;;;;;24.72;11.05;;;;;;;3.35;90.42;101834.45;1781242;78;21207;-63
2020/12/02 10:45:22;;;;;;;23.45;11.08;;;;;;;3.35;90.62;101826.95;1792888;79;21166;-61
2020/12/02 10:48:21;;;;;;;22.62;11.03;;;;;;;3.37;91.34;101828.73;1781471;79;21114;-62
2020/12/02 10:50:51;;;;;;;20.62;10.30;;;;;;;3.38;91.51;101833.61;1805543;79;21199;-62
2020/12/02 10:53:24;;;;;;;21.23;9.88;;;;;;;3.31;91.95;101820.71;1801498;79;21256;-61
2020/12/02 10:55:53;;;;;;;23.85;10.30;;;;;;;3.26;92.77;101827.72;1810753;78;21535;-64
2020/12/02 10:58:26;;;;;;;22.35;10.25;;;;;;;3.24;93.40;101859.95;1787562;80;21117;-61
2020/12/02 11:00:57;;;;;;;22.15;11.00;;;;;;;3.22;93.64;101828.56;1810235;77;21126;-61
2020/12/02 11:03:33;;;;;;;24.37;12.03;;;;;;;3.18;93.99;101842.61;1818843;77;21395;-57
2020/12/02 11:06:28;;;;;;;23.95;11.35;;;;;;;3.16;94.54;101825.39;1825492;77;21566;-57
2020/12/02 11:09:20;;;;;;;22.97;11.33;;;;;;;3.13;94.77;101839.48;1850594;77;21146;-57
2020/12/02 11:12:19;;;;;;;24.92;11.65;;;;;;;3.09;95.35;101833.69;1791316;80;21054;-57
2020/12/02 11:15:02;;;;;;;25.05;11.85;;;;;;;3.06;95.43;101820.40;1827124;78;21073;-57
2020/12/02 11:18:12;;;;;;;22.62;11.88;;;;;;;3.04;95.69;101815.94;1794068;80;21374;-59
2020/12/02 11:21:02;;;;;;;24.82;11.57;;;;;;;3.00;96.07;101825.63;1827749;78;21072;-58
2020/12/02 11:23:47;;;;;;;23.98;11.38;;;;;;;2.97;96.29;101837.06;1827049;78;21135;-57
2020/12/02 11:26:29;;;;;;;29.32;12.85;;;;;;;2.96;96.64;101839.67;1825405;77;21137;-58
2020/12/02 11:28:58;;;;;;;23.75;11.43;;;;;;;2.95;96.92;101837.89;1824627;78;21112;-56
2020/12/02 11:31:53;;;;;;;25.97;11.70;;;;;;;2.95;97.16;101827.30;1827918;78;21272;-58
2020/12/02 11:34:47;;;;;;;27.70;12.33;;;;;;;2.93;97.17;101824.64;1790384;80;21130;-58
2020/12/02 11:37:45;;;;;;;23.22;11.45;;;;;;;2.92;97.42;101829.91;1803078;78;21156;-56
2020/12/02 11:40:16;;;;;;;26.40;11.45;;;;;;;2.91;97.92;101837.40;1786366;78;21197;-57
2020/12/02 11:42:52;;;;;;;20.65;10.63;;;;;;;2.92;97.95;101823.28;1786505;80;21105;-56
2020/12/02 11:45:26;;;;;;;24.35;11.60;;;;;;;2.92;98.18;101821.54;1787354;80;22250;-56
2020/12/02 11:48:19;;;;;;;18.75;10.18;;;;;;;2.92;98.27;101832.55;1787201;80;21153;-57
2020/12/02 11:51:20;;;;;;;22.25;11.63;;;;;;;2.92;98.69;101832.55;1787160;80;21109;-56
2020/12/02 11:53:56;;;;;;;23.38;10.48;;;;;;;2.93;99.10;101820.67;1787195;80;21094;-56
2020/12/02 11:56:32;;;;;;;19.95;9.90;;;;;;;2.93;99.22;101835.23;1786553;80;21243;-57
2020/12/02 11:59:07;;;;;;;16.48;9.08;;;;;;;2.94;99.25;101818.89;1784017;80;21693;-57
2020/12/02 12:01:50;;;;;;;18.70;9.40;;;;;;;2.95;99.52;101814.05;1785485;80;21208;-57